createdAt,value
2019-04-23T00:00:29.408Z,67.38
2019-04-23T00:03:28.730Z,67.12
2019-04-23T00:06:32.221Z,68.40
2019-04-23T00:09:39.915Z,67.07
2019-04-23T00:12:52.956Z,67.82
2019-04-23T00:16:22.227Z,69.42
2019-04-23T00:19:15.229Z,67.66
2019-04-23T00:22:36.978Z,68.25
2019-04-23T00:26:08.059Z,68.76
2019-04-23T00:29:08.345Z,70.81
2019-04-23T00:32:15.467Z,70.40
2019-04-23T00:35:12.587Z,71.28
2019-04-23T00:38:30.435Z,71.52
2019-04-23T00:44:46.263Z,73.10
2019-04-23T00:47:46.698Z,73.17
2019-04-23T00:54:02.262Z,75.43
2019-04-23T00:57:13.542Z,75.78
2019-04-23T01:00:23.839Z,75.95
2019-04-23T01:03:24.355Z,78.14
2019-04-23T01:06:45.291Z,79.82
2019-04-23T01:09:45.701Z,80.10
2019-04-23T01:15:59.654Z,81.80
2019-04-23T01:19:19.230Z,82.36
2019-04-23T01:21:55.952Z,82.47
2019-04-23T01:25:31.056Z,81.32
2019-04-23T01:28:57.415Z,81.21
2019-04-23T01:31:59.734Z,82.30
2019-04-23T01:35:18.924Z,82.72
2019-04-23T01:38:11.559Z,83.45
2019-04-23T01:41:21.702Z,84.71
2019-04-23T01:44:36.982Z,84.29
2019-04-23T01:47:40.622Z,85.27
2019-04-23T01:50:48.349Z,86.85
2019-04-23T01:53:54.242Z,87.27
2019-04-23T01:56:58.073Z,85.83
2019-04-23T02:00:08.533Z,87.01
2019-04-23T02:03:15.492Z,88.08
2019-04-23T02:06:29.742Z,86.98
2019-04-23T02:09:36.440Z,86.01
2019-04-23T02:12:42.118Z,84.98
2019-04-23T02:15:49.522Z,84.99
2019-04-23T02:19:09.980Z,84.45
2019-04-23T02:22:13.224Z,83.10
2019-04-23T02:25:49.044Z,82.21
2019-04-23T02:28:35.485Z,82.87
2019-04-23T02:41:09.020Z,83.19
2019-04-23T02:44:16.741Z,83.14
2019-04-23T02:50:35.001Z,83.32
2019-04-23T02:53:44.283Z,84.34
2019-04-23T03:00:07.849Z,85.32
2019-04-23T03:03:19.025Z,85.67
2019-04-23T03:06:10.690Z,86.98
2019-04-23T03:09:12.909Z,86.78
2019-04-23T03:12:24.888Z,86.77
2019-04-23T03:15:52.304Z,86.80
2019-04-23T03:19:09.881Z,88.43
2019-04-23T03:22:48.781Z,89.34
2019-04-23T03:25:35.707Z,89.71
2019-04-23T03:38:20.561Z,90.12
2019-04-23T03:41:23.603Z,90.05
2019-04-23T03:44:28.960Z,90.61
2019-04-23T03:50:39.453Z,91.24
2019-04-23T03:57:03.349Z,91.55
2019-04-23T04:00:14.532Z,92.23
2019-04-23T04:03:27.830Z,91.54
2019-04-23T04:21:58.456Z,92.39
2019-04-23T04:25:09.176Z,91.39
2019-04-23T04:28:12.193Z,88.71
2019-04-23T04:31:16.302Z,87.32
2019-04-23T04:34:40.100Z,84.46
2019-04-23T04:37:44.156Z,82.57
2019-04-23T04:40:39.519Z,79.35
2019-04-23T04:43:53.636Z,79.46
2019-04-23T04:46:49.987Z,78.24
2019-04-23T04:53:16.899Z,75.10
2019-04-23T04:59:39.876Z,72.15
2019-04-23T05:02:43.270Z,71.72
2019-04-23T05:15:01.737Z,70.16
2019-04-23T05:24:45.151Z,66.60
2019-04-23T05:28:08.342Z,66.12
2019-04-23T05:31:12.071Z,65.20
2019-04-23T05:34:24.404Z,67.38
2019-04-23T05:37:23.333Z,67.86
2019-04-23T05:43:38.022Z,64.35
2019-04-23T05:46:36.686Z,60.83
2019-04-23T05:52:59.588Z,60.75
2019-04-23T05:56:01.945Z,61.27
2019-04-23T05:59:14.822Z,59.27
2019-04-23T06:02:11.336Z,58.16
2019-04-23T06:18:01.757Z,59.00
2019-04-23T06:21:05.657Z,54.79
2019-04-23T06:24:17.000Z,53.86
2019-04-23T06:27:22.048Z,57.25
2019-04-23T06:30:33.175Z,56.58
2019-04-23T06:33:32.240Z,55.14
2019-04-23T06:36:38.473Z,60.23
2019-04-23T06:43:11.730Z,60.06
2019-04-23T06:46:24.284Z,64.11
2019-04-23T06:49:30.558Z,65.71
2019-04-23T06:52:25.429Z,66.67
2019-04-23T06:55:44.538Z,65.55
2019-04-23T06:59:06.141Z,63.88
2019-04-23T07:01:59.383Z,64.79
2019-04-23T07:05:14.066Z,64.84
2019-04-23T07:08:12.101Z,65.50
2019-04-23T07:14:35.861Z,64.84
2019-04-23T07:17:30.777Z,63.07
2019-04-23T07:20:40.291Z,63.07
2019-04-23T07:26:52.829Z,62.63
2019-04-23T07:30:17.152Z,62.43
2019-04-23T07:33:19.110Z,61.80
2019-04-23T07:36:30.852Z,61.46
2019-04-23T07:42:55.080Z,63.40
2019-04-23T07:46:17.130Z,62.68
2019-04-23T07:49:23.709Z,61.76
2019-04-23T07:52:38.014Z,62.92
2019-04-23T07:55:56.816Z,61.46
2019-04-23T07:58:43.333Z,60.91
2019-04-23T08:01:51.194Z,60.30
2019-04-23T08:14:14.611Z,60.75
2019-04-23T08:17:27.817Z,59.15
2019-04-23T08:20:37.095Z,59.40
2019-04-23T08:24:01.613Z,59.32
2019-04-23T08:27:05.416Z,60.15
2019-04-23T08:30:09.407Z,60.66
2019-04-23T08:33:23.438Z,58.24
2019-04-23T08:36:35.833Z,58.72
2019-04-23T08:42:52.858Z,60.14
2019-04-23T08:46:15.550Z,57.75
2019-04-23T08:49:29.610Z,59.31
2019-04-23T08:52:30.761Z,58.61
2019-04-23T08:55:46.400Z,58.72
2019-04-23T08:58:41.630Z,56.86
2019-04-23T09:02:07.745Z,57.79
2019-04-23T09:05:11.113Z,56.06
2019-04-23T09:11:30.769Z,57.64
2019-04-23T09:14:08.919Z,55.96
2019-04-23T09:17:34.792Z,54.47
2019-04-23T09:20:30.994Z,55.75
2019-04-23T09:23:48.215Z,54.77
2019-04-23T09:27:01.928Z,56.47
2019-04-23T09:30:09.408Z,56.59
2019-04-23T09:33:28.851Z,55.28
2019-04-23T09:36:51.562Z,54.32
2019-04-23T09:40:10.827Z,53.83
2019-04-23T09:43:19.518Z,54.08
2019-04-23T09:46:58.841Z,53.92
2019-04-23T09:49:58.946Z,54.47
2019-04-23T09:53:17.743Z,52.96
2019-04-23T09:56:07.110Z,53.61
2019-04-23T09:59:26.090Z,52.51
2019-04-23T10:02:20.479Z,53.14
2019-04-23T10:05:22.082Z,54.31
2019-04-23T10:08:23.140Z,52.91
2019-04-23T10:11:26.087Z,52.83
2019-04-23T10:14:32.485Z,52.15
2019-04-23T10:17:38.134Z,51.53
2019-04-23T10:20:44.581Z,53.08
2019-04-23T10:23:51.539Z,52.77
2019-04-23T10:26:57.795Z,52.15
2019-04-23T10:30:04.081Z,51.16
2019-04-23T10:33:11.635Z,53.34
2019-04-23T10:36:21.114Z,53.33
2019-04-23T10:39:28.353Z,52.78
2019-04-23T10:42:34.058Z,53.28
2019-04-23T10:46:10.547Z,53.58
2019-04-23T10:49:55.438Z,51.95
2019-04-23T10:52:56.650Z,53.28
2019-04-23T10:59:06.582Z,52.57
2019-04-23T11:05:28.941Z,51.44
2019-04-23T11:08:33.062Z,51.39
2019-04-23T11:11:46.964Z,52.56
2019-04-23T11:14:58.398Z,51.35
2019-04-23T11:18:02.853Z,52.21
2019-04-23T11:24:20.783Z,51.48
2019-04-23T11:27:24.473Z,51.25
2019-04-23T11:33:39.598Z,52.70
2019-04-23T11:39:55.716Z,51.54
2019-04-23T11:43:14.318Z,52.54
2019-04-23T11:46:19.400Z,51.39
2019-04-23T11:49:26.804Z,50.67
2019-04-23T11:52:30.737Z,52.32
2019-04-23T11:55:40.361Z,51.89
2019-04-23T11:58:39.239Z,51.55
2019-04-23T12:11:52.921Z,50.58
2019-04-23T12:14:47.303Z,51.54
2019-04-23T12:18:11.095Z,51.88
2019-04-23T12:21:13.422Z,50.45
2019-04-23T12:24:53.630Z,50.47
2019-04-23T12:30:39.536Z,51.38
2019-04-23T12:33:50.252Z,50.07
2019-04-23T12:36:56.934Z,50.49
2019-04-23T12:40:12.924Z,50.86
2019-04-23T12:43:13.364Z,52.64
2019-04-23T12:46:16.167Z,51.05
2019-04-23T12:49:50.526Z,50.05
2019-04-23T12:52:35.973Z,51.80
2019-04-23T12:55:42.189Z,51.77
2019-04-23T12:58:38.348Z,48.97
2019-04-23T13:01:57.673Z,48.08
2019-04-23T13:05:03.783Z,49.30
2019-04-23T13:08:15.472Z,51.27
2019-04-23T13:11:17.519Z,51.46
2019-04-23T13:14:29.961Z,50.66
2019-04-23T13:17:48.995Z,51.42
2019-04-23T13:20:38.461Z,49.92
2019-04-23T13:23:51.129Z,49.61
2019-04-23T13:27:04.628Z,51.03
2019-04-23T13:30:08.700Z,52.09
2019-04-23T13:33:24.056Z,51.96
2019-04-23T13:36:24.691Z,51.87
2019-04-23T13:39:33.020Z,50.29
2019-04-23T13:42:46.461Z,52.94
2019-04-23T13:45:59.679Z,51.31
2019-04-23T13:48:48.984Z,50.84
2019-04-23T13:52:06.044Z,51.01
2019-04-23T14:01:25.832Z,51.48
2019-04-23T14:05:02.104Z,50.54
2019-04-23T14:08:13.641Z,50.45
2019-04-23T14:11:26.410Z,50.12
2019-04-23T14:14:42.133Z,49.50
2019-04-23T14:17:46.959Z,50.22
2019-04-23T14:20:40.760Z,50.10
2019-04-23T14:24:03.065Z,51.49
2019-04-23T14:26:58.395Z,49.87
2019-04-23T14:30:21.755Z,49.93
2019-04-23T14:36:21.528Z,50.06
2019-04-23T14:39:24.041Z,49.77
2019-04-23T14:42:53.905Z,49.00
2019-04-23T14:49:11.931Z,49.53
2019-04-23T14:52:21.266Z,49.47
2019-04-23T15:01:47.665Z,48.93
2019-04-23T15:07:58.707Z,49.58
2019-04-23T15:14:08.827Z,50.19
2019-04-23T15:17:20.034Z,51.06
2019-04-23T15:20:30.616Z,52.57
2019-04-23T15:29:42.090Z,52.32
2019-04-23T15:33:09.927Z,51.86
2019-04-23T15:36:30.597Z,51.31
2019-04-23T15:39:24.515Z,51.88
2019-04-23T15:42:25.446Z,53.24
2019-04-23T15:45:28.871Z,51.39
2019-04-23T15:49:01.442Z,51.38
2019-04-23T16:01:28.994Z,53.06
2019-04-23T16:03:59.525Z,52.58
2019-04-23T16:07:07.503Z,52.77
2019-04-23T16:10:52.331Z,53.51
2019-04-23T16:14:04.679Z,54.13
2019-04-23T16:17:00.130Z,54.97
2019-04-23T16:23:17.825Z,53.58
2019-04-23T16:26:31.315Z,54.11
2019-04-23T16:29:48.945Z,53.88
2019-04-23T16:36:12.698Z,53.62
2019-04-23T16:39:18.553Z,52.27
2019-04-23T16:45:31.051Z,52.93
2019-04-23T16:48:50.674Z,53.28
2019-04-23T16:52:01.792Z,53.37
2019-04-23T16:54:55.202Z,53.86
2019-04-23T16:58:11.893Z,55.21
2019-04-23T17:07:20.431Z,55.55
2019-04-23T17:10:39.604Z,55.21
2019-04-23T17:13:50.995Z,55.90
2019-04-23T17:16:44.404Z,56.01
2019-04-23T17:20:00.044Z,56.40
2019-04-23T17:23:10.114Z,56.52
2019-04-23T17:26:25.584Z,57.68
2019-04-23T17:32:23.650Z,57.82
2019-04-23T17:39:01.361Z,58.60
2019-04-23T17:42:21.235Z,60.10
2019-04-23T17:48:28.717Z,58.54
2019-04-23T17:51:42.303Z,59.85
2019-04-23T17:58:03.873Z,61.37
2019-04-23T18:01:17.087Z,61.42
2019-04-23T18:04:32.992Z,62.02
2019-04-23T18:07:37.783Z,61.49
2019-04-23T18:10:37.030Z,61.98
2019-04-23T18:13:45.707Z,62.45
2019-04-23T18:20:16.729Z,62.46
2019-04-23T18:23:25.817Z,62.76
2019-04-23T18:27:05.129Z,63.16
2019-04-23T18:30:08.101Z,63.52
2019-04-23T18:33:49.067Z,64.14
2019-04-23T18:36:21.724Z,64.64
2019-04-23T18:39:38.194Z,64.55
2019-04-23T18:42:46.476Z,64.18
2019-04-23T18:45:53.831Z,64.51
2019-04-23T18:48:52.864Z,65.09
2019-04-23T18:52:04.767Z,65.87
2019-04-23T18:55:16.659Z,65.59
2019-04-23T18:58:21.940Z,65.39
2019-04-23T19:01:31.097Z,65.55
2019-04-23T19:08:51.449Z,65.53
2019-04-23T19:11:59.683Z,66.15
2019-04-23T19:14:47.441Z,66.54
2019-04-23T19:17:51.621Z,66.57
2019-04-23T19:24:03.503Z,67.55
2019-04-23T19:27:28.690Z,67.90
2019-04-23T19:33:45.439Z,68.02
2019-04-23T19:39:58.529Z,68.61
2019-04-23T19:43:00.915Z,68.43
2019-04-23T19:46:34.682Z,68.92
2019-04-23T19:52:34.776Z,70.06
2019-04-23T19:55:48.006Z,69.15
2019-04-23T19:58:46.766Z,70.29
2019-04-23T20:01:58.943Z,70.23
2019-04-23T20:04:55.500Z,70.92
2019-04-23T20:11:13.692Z,71.80
2019-04-23T20:14:21.913Z,71.60
2019-04-23T20:17:37.992Z,71.59
2019-04-23T20:20:43.885Z,72.56
2019-04-23T20:27:00.722Z,72.50
2019-04-23T20:30:32.325Z,72.51
2019-04-23T20:33:59.118Z,71.96
2019-04-23T20:39:53.701Z,72.91
2019-04-23T20:46:10.769Z,72.01
2019-04-23T20:49:31.831Z,72.72
2019-04-23T20:52:30.089Z,72.36
2019-04-23T20:55:39.145Z,73.54
2019-04-23T20:58:55.612Z,72.74
2019-04-23T21:02:14.835Z,72.43
2019-04-23T21:05:19.190Z,73.35
2019-04-23T21:08:30.354Z,73.53
2019-04-23T21:11:36.216Z,72.90
2019-04-23T21:17:51.305Z,73.65
2019-04-23T21:27:20.294Z,75.53
2019-04-23T21:34:06.198Z,76.52
2019-04-23T21:36:56.810Z,76.06
2019-04-23T21:44:05.598Z,77.90
2019-04-23T21:46:52.665Z,78.41
2019-04-23T21:50:12.012Z,78.72
2019-04-23T21:53:07.141Z,79.19
2019-04-23T21:59:10.516Z,79.45
2019-04-23T22:02:28.773Z,80.60
2019-04-23T22:08:45.886Z,80.28
2019-04-23T22:14:50.355Z,80.52
2019-04-23T22:18:00.231Z,80.69
2019-04-23T22:21:17.372Z,80.96
2019-04-23T22:24:28.806Z,80.26
2019-04-23T22:27:16.359Z,80.57
2019-04-23T22:30:38.605Z,80.75
2019-04-23T22:33:48.197Z,81.72
2019-04-23T22:36:51.926Z,80.90
2019-04-23T22:39:54.185Z,81.33
2019-04-23T22:46:05.363Z,81.65
2019-04-23T22:52:22.915Z,81.20
2019-04-23T22:55:38.852Z,80.22
2019-04-23T22:58:56.410Z,79.74
2019-04-23T23:01:57.222Z,79.32
2019-04-23T23:05:14.140Z,79.25
2019-04-23T23:11:08.858Z,78.71
2019-04-23T23:14:22.372Z,78.09
2019-04-23T23:17:24.631Z,77.87
2019-04-23T23:20:30.272Z,77.84
2019-04-23T23:23:39.432Z,77.14
2019-04-23T23:26:49.810Z,77.27
2019-04-23T23:30:06.395Z,76.95
2019-04-23T23:33:04.133Z,77.84
2019-04-23T23:36:25.112Z,78.23
2019-04-23T23:45:35.406Z,76.90
2019-04-23T23:51:44.789Z,77.04
2019-04-23T23:55:03.734Z,77.31
